createdAt,value
2018-06-18T00:02:19.029Z,18.20
2018-06-18T00:04:47.242Z,18.30
2018-06-18T00:07:15.373Z,18.40
2018-06-18T00:09:43.469Z,18.40
2018-06-18T00:14:39.395Z,18.60
2018-06-18T00:17:07.520Z,18.60
2018-06-18T00:19:35.614Z,18.60
2018-06-18T00:24:31.521Z,18.80
2018-06-18T00:26:59.572Z,18.90
2018-06-18T00:29:27.624Z,19.20
2018-06-18T00:31:55.680Z,19.30
2018-06-18T00:34:23.803Z,19.40
2018-06-18T00:36:51.864Z,19.40
2018-06-18T00:39:19.977Z,19.60
2018-06-18T00:41:48.022Z,19.60
2018-06-18T00:44:16.081Z,19.60
2018-06-18T00:46:44.158Z,19.60
2018-06-18T00:49:12.265Z,19.50
2018-06-18T00:51:40.319Z,19.60
2018-06-18T00:54:08.419Z,19.60
2018-06-18T00:56:36.504Z,19.60
2018-06-18T01:04:00.416Z,19.60
2018-06-18T01:06:28.493Z,19.70
2018-06-18T01:08:56.537Z,19.70
2018-06-18T01:11:24.620Z,19.70
2018-06-18T01:13:52.729Z,19.60
2018-06-18T01:16:20.760Z,19.60
2018-06-18T01:18:48.937Z,19.60
2018-06-18T01:21:17.004Z,19.60
2018-06-18T01:23:49.788Z,19.50
2018-06-18T01:26:17.835Z,19.50
2018-06-18T01:28:45.901Z,19.60
2018-06-18T01:31:14.038Z,19.50
2018-06-18T01:33:42.126Z,19.60
2018-06-18T01:36:10.184Z,19.50
2018-06-18T01:38:39.276Z,19.60
2018-06-18T01:41:07.632Z,19.50
2018-06-18T01:43:35.682Z,19.50
2018-06-18T01:46:04.147Z,19.60
2018-06-18T01:48:32.214Z,19.60
2018-06-18T01:51:00.321Z,19.60
2018-06-18T01:53:29.102Z,19.60
2018-06-18T01:55:57.182Z,19.60
2018-06-18T01:58:25.262Z,19.60
2018-06-18T02:00:53.330Z,19.60
2018-06-18T02:03:21.406Z,19.60
2018-06-18T02:05:49.492Z,19.60
2018-06-18T02:10:45.770Z,19.60
2018-06-18T02:13:13.858Z,19.60
2018-06-18T02:15:41.997Z,19.60
2018-06-18T02:20:37.940Z,19.60
2018-06-18T02:28:07.052Z,19.70
2018-06-18T02:30:40.649Z,19.80
2018-06-18T02:33:14.297Z,19.80
2018-06-18T02:35:48.041Z,19.80
2018-06-18T02:38:21.784Z,19.90
2018-06-18T02:40:49.831Z,20.00
2018-06-18T02:43:18.375Z,19.90
2018-06-18T02:45:46.806Z,19.90
2018-06-18T02:48:14.946Z,19.90
2018-06-18T02:50:43.335Z,19.90
2018-06-18T02:53:11.481Z,19.90
2018-06-18T02:55:41.845Z,19.90
2018-06-18T02:58:09.919Z,19.80
2018-06-18T03:00:37.995Z,19.90
2018-06-18T03:03:06.082Z,19.90
2018-06-18T03:10:29.893Z,19.80
2018-06-18T03:15:25.811Z,19.80
2018-06-18T03:17:53.870Z,19.80
2018-06-18T03:20:27.529Z,19.80
2018-06-18T03:23:01.116Z,19.80
2018-06-18T03:25:34.777Z,19.90
2018-06-18T03:28:08.320Z,19.90
2018-06-18T03:30:36.398Z,19.80
2018-06-18T03:33:04.825Z,19.80
2018-06-18T03:35:33.002Z,19.80
2018-06-18T03:38:01.856Z,19.80
2018-06-18T03:40:29.977Z,19.80
2018-06-18T03:42:58.058Z,19.80
2018-06-18T03:45:28.506Z,19.90
2018-06-18T03:47:59.325Z,19.90
2018-06-18T03:50:27.437Z,19.90
2018-06-18T03:52:55.534Z,19.90
2018-06-18T03:55:42.120Z,20.00
2018-06-18T03:58:10.229Z,20.00
2018-06-18T04:01:54.244Z,20.00
2018-06-18T04:04:27.900Z,20.00
2018-06-18T04:07:01.693Z,19.90
2018-06-18T04:09:35.152Z,20.00
2018-06-18T04:12:05.190Z,20.00
2018-06-18T04:14:33.505Z,20.00
2018-06-18T04:17:01.631Z,20.00
2018-06-18T04:19:29.871Z,20.00
2018-06-18T04:21:57.956Z,20.00
2018-06-18T04:24:26.074Z,20.00
2018-06-18T04:26:54.571Z,20.10
2018-06-18T04:29:22.691Z,20.10
2018-06-18T04:31:52.371Z,20.10
2018-06-18T04:34:46.147Z,20.10
2018-06-18T04:37:14.204Z,20.20
2018-06-18T04:39:42.297Z,20.20
2018-06-18T04:42:15.978Z,20.20
2018-06-18T04:44:49.652Z,20.20
2018-06-18T04:47:23.082Z,20.30
2018-06-18T04:49:56.802Z,20.30
2018-06-18T04:54:52.808Z,20.30
2018-06-18T04:57:20.895Z,20.30
2018-06-18T04:59:54.426Z,20.30
2018-06-18T05:02:22.472Z,20.40
2018-06-18T05:04:50.807Z,20.40
2018-06-18T05:07:20.245Z,20.50
2018-06-18T05:09:55.597Z,20.50
2018-06-18T05:12:23.736Z,20.50
2018-06-18T05:14:52.153Z,20.50
2018-06-18T05:17:20.421Z,20.60
2018-06-18T05:19:48.612Z,20.60
2018-06-18T05:24:47.807Z,20.60
2018-06-18T05:27:16.002Z,20.70
2018-06-18T05:29:44.058Z,20.80
2018-06-18T05:32:12.107Z,20.80
2018-06-18T05:34:40.166Z,20.90
2018-06-18T05:37:11.507Z,21.00
2018-06-18T05:39:39.654Z,21.00
2018-06-18T05:42:07.744Z,21.00
2018-06-18T05:44:35.769Z,21.10
2018-06-18T05:47:03.909Z,21.10
2018-06-18T05:49:31.965Z,21.10
2018-06-18T05:52:00.037Z,21.10
2018-06-18T05:54:28.300Z,21.20
2018-06-18T05:56:56.585Z,21.40
2018-06-18T05:59:24.716Z,21.40
2018-06-18T06:01:52.871Z,21.50
2018-06-18T06:04:20.946Z,21.60
2018-06-18T06:06:48.989Z,21.60
2018-06-18T06:09:17.206Z,21.60
2018-06-18T06:14:13.235Z,21.70
2018-06-18T06:16:41.456Z,22.00
2018-06-18T06:19:09.489Z,22.10
2018-06-18T06:21:37.557Z,22.10
2018-06-18T06:24:05.736Z,22.30
2018-06-18T06:26:33.833Z,22.40
2018-06-18T06:31:29.823Z,22.80
2018-06-18T06:33:57.956Z,22.90
2018-06-18T06:36:27.067Z,23.10
2018-06-18T06:38:55.236Z,23.00
2018-06-18T06:41:24.492Z,23.00
2018-06-18T06:43:52.615Z,23.00
2018-06-18T06:46:20.699Z,22.90
2018-06-18T06:48:48.849Z,22.90
2018-06-18T06:51:17.777Z,22.80
2018-06-18T06:53:45.845Z,22.80
2018-06-18T06:56:13.917Z,22.90
2018-06-18T06:58:41.977Z,22.90
2018-06-18T07:01:10.084Z,23.10
2018-06-18T07:03:38.232Z,23.30
2018-06-18T07:06:06.387Z,23.50
2018-06-18T07:08:34.488Z,23.70
2018-06-18T07:11:02.602Z,23.90
2018-06-18T07:15:58.520Z,24.20
2018-06-18T07:18:26.593Z,24.30
2018-06-18T07:20:54.667Z,24.50
2018-06-18T07:23:22.746Z,24.20
2018-06-18T07:28:18.692Z,24.50
2018-06-18T07:30:47.469Z,24.50
2018-06-18T07:33:15.620Z,24.60
2018-06-18T07:35:43.779Z,24.70
2018-06-18T07:38:12.160Z,24.80
2018-06-18T07:40:40.271Z,24.90
2018-06-18T07:43:11.305Z,25.20
2018-06-18T07:45:39.483Z,25.10
2018-06-18T07:48:07.634Z,25.30
2018-06-18T07:50:35.739Z,25.10
2018-06-18T07:53:03.914Z,25.20
2018-06-18T07:55:32.026Z,25.30
2018-06-18T07:58:00.133Z,25.50
2018-06-18T08:00:28.298Z,25.50
2018-06-18T08:02:56.922Z,25.60
2018-06-18T08:05:25.086Z,25.60
2018-06-18T08:07:53.188Z,25.30
2018-06-18T08:10:21.306Z,25.60
2018-06-18T08:12:49.361Z,25.80
2018-06-18T08:15:17.427Z,25.50
2018-06-18T08:17:45.525Z,25.80
2018-06-18T08:20:15.366Z,25.50
2018-06-18T08:22:44.167Z,25.30
2018-06-18T08:25:12.236Z,25.30
2018-06-18T08:30:08.226Z,25.30
2018-06-18T08:32:36.430Z,25.50
2018-06-18T08:35:04.819Z,25.20
2018-06-18T08:37:32.899Z,25.40
2018-06-18T08:40:01.004Z,25.70
2018-06-18T08:42:29.216Z,25.90
2018-06-18T08:44:57.322Z,25.90
2018-06-18T08:50:56.182Z,26.20
2018-06-18T08:53:29.592Z,26.20
2018-06-18T08:56:03.205Z,26.50
2018-06-18T08:58:36.724Z,26.30
2018-06-18T09:01:09.612Z,26.30
2018-06-18T09:06:11.243Z,27.00
2018-06-18T09:08:44.732Z,26.90
2018-06-18T09:11:13.105Z,27.00
2018-06-18T09:13:41.216Z,26.50
2018-06-18T09:16:09.392Z,26.90
2018-06-18T09:18:37.697Z,27.10
2018-06-18T09:21:05.900Z,27.50
2018-06-18T09:23:34.192Z,27.70
2018-06-18T09:26:02.308Z,28.00
2018-06-18T09:28:31.212Z,27.60
2018-06-18T09:30:59.338Z,27.40
2018-06-18T09:33:27.385Z,27.30
2018-06-18T09:35:55.585Z,27.70
2018-06-18T09:38:23.650Z,27.00
2018-06-18T09:40:51.681Z,27.20
2018-06-18T09:43:19.764Z,27.40
2018-06-18T09:45:47.852Z,27.50
2018-06-18T09:48:15.938Z,27.70
2018-06-18T09:50:49.678Z,28.00
2018-06-18T09:53:23.353Z,28.00
2018-06-18T09:55:58.548Z,27.60
2018-06-18T09:58:33.221Z,27.60
2018-06-18T10:01:09.195Z,27.50
2018-06-18T10:03:37.241Z,27.50
2018-06-18T10:06:05.926Z,27.90
2018-06-18T10:08:34.036Z,28.20
2018-06-18T10:11:02.128Z,28.00
2018-06-18T10:15:58.115Z,28.40
2018-06-18T10:18:26.177Z,28.30
2018-06-18T10:20:54.306Z,28.20
2018-06-18T10:23:22.391Z,28.50
2018-06-18T10:25:50.460Z,28.20
2018-06-18T10:28:22.633Z,28.40
2018-06-18T10:30:50.914Z,28.70
2018-06-18T10:33:24.376Z,28.50
2018-06-18T10:35:58.090Z,28.70
2018-06-18T10:38:31.793Z,28.60
2018-06-18T10:43:34.613Z,28.70
2018-06-18T10:46:02.710Z,28.80
2018-06-18T10:48:30.867Z,29.00
2018-06-18T10:50:58.988Z,28.90
2018-06-18T10:53:27.062Z,28.80
2018-06-18T10:55:55.108Z,28.20
2018-06-18T10:58:23.346Z,28.40
2018-06-18T11:03:21.219Z,28.50
2018-06-18T11:05:54.963Z,28.80
2018-06-18T11:08:23.011Z,28.80
2018-06-18T11:10:51.117Z,28.90
2018-06-18T11:13:19.199Z,28.80
2018-06-18T11:15:48.278Z,28.80
2018-06-18T11:18:21.920Z,28.70
2018-06-18T11:20:55.504Z,28.50
2018-06-18T11:23:29.188Z,28.60
2018-06-18T11:26:02.838Z,28.80
2018-06-18T11:28:30.956Z,28.80
2018-06-18T11:30:58.981Z,28.90
2018-06-18T11:33:27.121Z,28.90
2018-06-18T11:35:55.249Z,28.90
2018-06-18T11:38:23.350Z,29.00
2018-06-18T11:40:51.426Z,29.00
2018-06-18T11:43:19.591Z,28.90
2018-06-18T11:45:47.642Z,29.20
2018-06-18T11:48:18.409Z,29.00
2018-06-18T11:50:47.013Z,29.10
2018-06-18T11:53:15.415Z,29.10
2018-06-18T11:55:43.473Z,29.20
2018-06-18T11:58:11.561Z,29.10
2018-06-18T12:00:45.188Z,29.00
2018-06-18T12:03:18.645Z,29.00
2018-06-18T12:05:52.106Z,28.90
2018-06-18T12:08:25.555Z,29.30
2018-06-18T12:10:53.609Z,29.40
2018-06-18T12:13:21.669Z,29.60
2018-06-18T12:15:49.763Z,29.30
2018-06-18T12:18:17.832Z,29.50
2018-06-18T12:20:45.920Z,29.40
2018-06-18T12:23:13.985Z,29.30
2018-06-18T12:25:42.056Z,29.00
2018-06-18T12:28:10.203Z,29.30
2018-06-18T12:30:38.307Z,28.90
2018-06-18T12:33:06.431Z,28.70
2018-06-18T12:35:34.531Z,28.80
2018-06-18T12:38:02.626Z,29.20
2018-06-18T12:40:30.694Z,29.30
2018-06-18T12:42:58.779Z,29.00
2018-06-18T12:47:39.270Z,29.10
2018-06-18T12:52:46.205Z,29.10
2018-06-18T12:55:19.848Z,29.10
2018-06-18T12:57:47.883Z,29.40
2018-06-18T13:00:15.957Z,29.30
2018-06-18T13:02:47.872Z,29.40
2018-06-18T13:05:15.958Z,29.20
2018-06-18T13:07:44.005Z,29.10
2018-06-18T13:10:12.197Z,29.20
2018-06-18T13:15:08.139Z,29.10
2018-06-18T13:20:04.216Z,29.00
2018-06-18T13:22:32.284Z,29.30
2018-06-18T13:25:00.376Z,29.30
2018-06-18T13:27:33.955Z,29.40
2018-06-18T13:30:02.063Z,29.60
2018-06-18T13:32:31.335Z,29.30
2018-06-18T13:34:59.420Z,29.20
2018-06-18T13:37:32.881Z,29.10
2018-06-18T13:40:06.554Z,29.00
2018-06-18T13:42:40.188Z,29.10
2018-06-18T13:45:13.774Z,29.30
2018-06-18T13:47:47.345Z,29.00
2018-06-18T13:50:15.387Z,29.00
2018-06-18T13:52:43.619Z,28.80
2018-06-18T13:55:11.661Z,28.90
2018-06-18T13:57:39.753Z,28.80
2018-06-18T14:02:36.154Z,29.00
2018-06-18T14:05:04.332Z,28.90
2018-06-18T14:07:32.400Z,28.70
2018-06-18T14:10:00.554Z,28.60
2018-06-18T14:12:28.615Z,28.70
2018-06-18T14:14:56.675Z,28.60
2018-06-18T14:17:24.753Z,28.50
2018-06-18T14:19:58.300Z,28.50
2018-06-18T14:22:26.414Z,28.50
2018-06-18T14:24:54.728Z,28.60
2018-06-18T14:27:22.839Z,28.70
2018-06-18T14:29:56.373Z,28.40
2018-06-18T14:32:30.094Z,28.60
2018-06-18T14:35:03.541Z,28.50
2018-06-18T14:37:37.008Z,28.10
2018-06-18T14:40:09.369Z,28.00
2018-06-18T14:42:37.638Z,28.00
2018-06-18T14:45:05.769Z,28.00
2018-06-18T14:47:33.973Z,28.10
2018-06-18T14:50:02.040Z,28.10
2018-06-18T14:52:30.329Z,28.30
2018-06-18T14:54:58.512Z,28.20
2018-06-18T14:57:26.643Z,28.40
2018-06-18T15:00:01.195Z,27.80
2018-06-18T15:02:29.281Z,28.00
2018-06-18T15:04:57.372Z,27.80
2018-06-18T15:07:25.525Z,27.60
2018-06-18T15:09:53.714Z,27.60
2018-06-18T15:12:23.719Z,27.60
2018-06-18T15:14:57.210Z,27.70
2018-06-18T15:17:25.448Z,27.60
2018-06-18T15:19:53.695Z,27.40
2018-06-18T15:22:23.872Z,27.40
2018-06-18T15:24:55.221Z,27.40
2018-06-18T15:32:19.331Z,27.30
2018-06-18T15:34:47.325Z,27.30
2018-06-18T15:37:15.387Z,27.20
2018-06-18T15:39:43.441Z,27.10
2018-06-18T15:47:07.298Z,26.90
2018-06-18T15:49:35.391Z,26.70
2018-06-18T15:52:03.491Z,26.80
2018-06-18T15:54:31.635Z,26.50
2018-06-18T15:56:59.860Z,26.60
2018-06-18T15:59:27.767Z,26.60
2018-06-18T16:01:55.912Z,26.60
2018-06-18T16:04:23.989Z,26.60
2018-06-18T16:06:52.078Z,26.60
2018-06-18T16:09:20.180Z,26.60
2018-06-18T16:11:48.294Z,26.60
2018-06-18T16:14:16.385Z,26.60
2018-06-18T16:16:44.433Z,26.50
2018-06-18T16:19:12.498Z,26.40
2018-06-18T16:21:40.554Z,26.40
2018-06-18T16:24:08.629Z,26.30
2018-06-18T16:26:36.778Z,26.30
2018-06-18T16:29:04.907Z,26.20
2018-06-18T16:31:32.947Z,25.90
2018-06-18T16:34:01.083Z,26.00
2018-06-18T16:36:29.240Z,26.00
2018-06-18T16:38:57.322Z,25.80
2018-06-18T16:41:25.498Z,25.70
2018-06-18T16:43:53.556Z,25.60
2018-06-18T16:46:21.638Z,25.50
2018-06-18T16:48:49.965Z,25.40
2018-06-18T16:51:17.991Z,25.30
2018-06-18T16:53:46.097Z,25.00
2018-06-18T16:56:14.135Z,24.90
2018-06-18T16:58:42.210Z,24.90
2018-06-18T17:01:10.308Z,24.90
2018-06-18T17:03:38.365Z,24.80
2018-06-18T17:06:06.435Z,24.70
2018-06-18T17:08:34.508Z,24.80
2018-06-18T17:11:02.565Z,24.80
2018-06-18T17:13:30.676Z,24.70
2018-06-18T17:15:58.815Z,24.70
2018-06-18T17:18:27.052Z,24.60
2018-06-18T17:20:55.189Z,24.50
2018-06-18T17:23:23.355Z,24.30
2018-06-18T17:25:52.504Z,24.20
2018-06-18T17:28:21.985Z,24.20
2018-06-18T17:30:50.954Z,24.20
2018-06-18T17:33:24.314Z,24.10
2018-06-18T17:35:54.238Z,24.10
2018-06-18T17:38:25.492Z,24.00
2018-06-18T17:40:58.439Z,24.00
2018-06-18T17:43:33.101Z,24.00
2018-06-18T17:46:03.356Z,23.90
2018-06-18T17:48:34.657Z,23.90
2018-06-18T17:51:11.908Z,23.70
2018-06-18T17:53:42.374Z,23.60
2018-06-18T17:56:10.667Z,23.50
2018-06-18T17:58:39.575Z,23.30
2018-06-18T18:01:07.847Z,23.20
2018-06-18T18:03:36.101Z,23.20
2018-06-18T18:06:04.357Z,23.10
2018-06-18T18:08:32.652Z,23.10
2018-06-18T18:11:00.989Z,23.10
2018-06-18T18:13:29.295Z,23.00
2018-06-18T18:15:57.711Z,23.00
2018-06-18T18:18:25.979Z,22.90
2018-06-18T18:20:54.253Z,22.80
2018-06-18T18:23:22.645Z,22.70
2018-06-18T18:25:50.843Z,22.70
2018-06-18T18:28:19.030Z,22.70
2018-06-18T18:33:16.568Z,22.50
2018-06-18T18:35:44.839Z,22.50
2018-06-18T18:38:13.391Z,22.50
2018-06-18T18:40:44.439Z,22.50
2018-06-18T18:43:12.645Z,22.40
2018-06-18T18:45:40.999Z,22.40
2018-06-18T18:48:09.267Z,22.30
2018-06-18T18:50:37.560Z,22.10
2018-06-18T18:53:05.789Z,22.10
2018-06-18T18:55:46.426Z,22.00
2018-06-18T18:58:25.750Z,22.00
2018-06-18T19:00:54.001Z,21.90
2018-06-18T19:03:23.980Z,21.80
2018-06-18T19:05:52.971Z,21.80
2018-06-18T19:08:29.444Z,21.70
2018-06-18T19:10:59.027Z,21.70
2018-06-18T19:13:29.684Z,21.60
2018-06-18T19:15:58.304Z,21.60
2018-06-18T19:18:26.387Z,21.50
2018-06-18T19:21:00.909Z,21.50
2018-06-18T19:23:29.086Z,21.40
2018-06-18T19:25:57.183Z,21.40
2018-06-18T19:28:25.505Z,21.30
2018-06-18T19:31:03.751Z,21.30
2018-06-18T19:33:37.709Z,21.30
2018-06-18T19:36:06.870Z,21.30
2018-06-18T19:38:35.799Z,21.20
2018-06-18T19:41:04.125Z,21.20
2018-06-18T19:43:32.259Z,21.20
2018-06-18T19:48:38.140Z,21.10
2018-06-18T19:51:07.091Z,21.00
2018-06-18T19:53:35.659Z,20.90
2018-06-18T19:56:03.957Z,20.90
2018-06-18T19:58:32.131Z,20.80
2018-06-18T20:01:02.999Z,20.80
2018-06-18T20:03:31.172Z,20.70
2018-06-18T20:13:23.928Z,20.50
2018-06-18T20:15:52.006Z,20.50
2018-06-18T20:18:20.066Z,20.40
2018-06-18T20:20:48.262Z,20.40
2018-06-18T20:23:18.462Z,20.40
2018-06-18T20:26:17.809Z,20.30
2018-06-18T20:28:45.921Z,20.30
2018-06-18T20:31:14.045Z,20.20
2018-06-18T20:33:51.533Z,20.10
2018-06-18T20:36:20.950Z,19.80
2018-06-18T20:38:49.181Z,19.70
2018-06-18T20:41:17.281Z,19.60
2018-06-18T20:43:57.779Z,19.50
2018-06-18T20:46:26.019Z,19.40
2018-06-18T20:48:54.388Z,19.30
2018-06-18T20:51:22.872Z,19.20
2018-06-18T20:53:51.161Z,19.20
2018-06-18T20:56:19.527Z,19.10
2018-06-18T20:58:47.899Z,19.10
2018-06-18T21:01:16.106Z,19.10
2018-06-18T21:03:44.267Z,18.90
2018-06-18T21:06:12.374Z,18.90
2018-06-18T21:08:40.507Z,18.80
2018-06-18T21:11:08.600Z,18.80
2018-06-18T21:13:36.668Z,18.70
2018-06-18T21:16:04.831Z,18.70
2018-06-18T21:18:33.116Z,18.60
2018-06-18T21:21:01.213Z,18.60
2018-06-18T21:25:57.335Z,18.50
2018-06-18T21:28:25.640Z,18.50
2018-06-18T21:33:21.543Z,18.40
2018-06-18T21:35:49.687Z,18.30
2018-06-18T21:38:17.750Z,18.30
2018-06-18T21:40:45.842Z,18.30
2018-06-18T21:43:13.984Z,18.30
2018-06-18T21:45:42.052Z,18.20
2018-06-18T21:48:10.105Z,18.20
2018-06-18T21:50:38.204Z,18.20
2018-06-18T21:53:06.286Z,18.10
2018-06-18T21:55:34.457Z,18.10
2018-06-18T21:58:02.546Z,18.00
2018-06-18T22:00:34.980Z,17.90
2018-06-18T22:03:03.100Z,17.90
2018-06-18T22:05:31.255Z,17.90
2018-06-18T22:07:59.388Z,17.80
2018-06-18T22:10:27.471Z,17.80
2018-06-18T22:12:55.601Z,17.70
2018-06-18T22:15:23.685Z,17.70
2018-06-18T22:17:51.968Z,17.60
2018-06-18T22:20:20.043Z,17.50
2018-06-18T22:22:48.150Z,17.50
2018-06-18T22:25:16.205Z,17.40
2018-06-18T22:32:40.185Z,17.30
2018-06-18T22:35:08.329Z,17.30
2018-06-18T22:37:37.035Z,17.30
2018-06-18T22:40:05.188Z,17.30
2018-06-18T22:42:33.260Z,17.30
2018-06-18T22:45:01.520Z,17.20
2018-06-18T22:47:29.726Z,17.20
2018-06-18T22:49:57.833Z,17.10
2018-06-18T22:52:25.985Z,17.10
2018-06-18T22:54:54.163Z,17.10
2018-06-18T22:57:22.277Z,17.10
2018-06-18T22:59:50.375Z,17.00
2018-06-18T23:02:21.268Z,17.00
2018-06-18T23:04:49.382Z,17.00
2018-06-18T23:07:17.564Z,16.90
2018-06-18T23:09:45.961Z,16.90
2018-06-18T23:12:14.399Z,16.80
2018-06-18T23:14:42.433Z,16.80
2018-06-18T23:17:10.505Z,16.70
2018-06-18T23:19:39.113Z,16.70
2018-06-18T23:22:07.224Z,16.70
2018-06-18T23:24:35.278Z,16.70
2018-06-18T23:27:03.384Z,16.70
2018-06-18T23:29:31.515Z,16.70
2018-06-18T23:31:59.615Z,16.60
2018-06-18T23:34:27.715Z,16.70
2018-06-18T23:36:55.787Z,16.70
2018-06-18T23:39:27.550Z,16.60
2018-06-18T23:41:56.775Z,16.60
2018-06-18T23:44:24.935Z,16.60
2018-06-18T23:46:53.119Z,16.60
2018-06-18T23:49:21.271Z,16.60
2018-06-18T23:51:49.473Z,16.60
2018-06-18T23:54:17.600Z,16.60
2018-06-18T23:56:45.719Z,16.60
2018-06-18T23:59:13.816Z,16.60
